Gearhart, Oregon
Current Conditions -  °F | °C
As of 6:55 AM on Wednesday 26 Nov 2014 (Local Time) from KAST Reporting Station
Overcast Overcast  
Wind Chill: 55°   Ceiling: 600
Heat Index: 55°   Visibility: 10mi
Dew Point: 53°   Wind: 6mph
Humidity: 93%   Direction: 190°S
Pressure: 30.15"   Gusts: NA
Location:  45.8905°N, 123.667°W
Report Text: KAST 261455Z AUTO 19005KT 10SM OVC006 13/12 A3015 RMK AO2 SLP210 T01280117 58008
Loading
Personal Weather Stations






























Interactive Weather Map New forecast layout! Learn more

10-Day Weather Forecast

Advertisements
Track Severe Weather on mobile